Terminal Aerodrome Forecast
Issued by NWS

Home | Current Version | Previous Version | Graphics & Text | Print | Product List | Glossary On
Versions: 1 2 3 4 5 6 7 8 9 10 11 12 13 14 15 16 17 18 19 20 21 22 23 24 25
584
FTUS43 KLOT 231339 AAA
TAFDPA
TAF AMD
KDPA 231339Z 2314/2412 22009KT 6SM -SHRA BKN012 OVC060
     FM231600 22008KT 6SM -SHRA SCT015 OVC040
     FM232100 19007KT 6SM -SHRA VCTS BKN035CB OVC050
     FM240100 06006KT P6SM VCSH SCT020 OVC030
     FM240300 05006KT 6SM BR VCSH SCT010 OVC020
     FM240500 03007KT 5SM BR SCT006 OVC010=

USA.gov is the U.S. government's official web portal to all federal, state and local government web resources and services.